ENBS

Båtsfjord Airport

Båtsfjord, Norway
METAR ENBS 240750Z 09020KT 2000 -SHSN VV010 M05/M06 Q1017
Observed Flight Rules
Jan-24 @ 07:50 UTC (48 minutes ago) Instrument Flight Rules
Wind Visibility Clouds Conditions
90° at 20 knots 1,996 meters
  • Vertical visibility at 1,000' AGL
  • Light Snow
Temperatures Readings
Current -5°C / 23°F
Dewpoint -6°C / 21°F
Humidity 93%
Altimeter 30.03" Hg
Pressure 1016.92 hPa
Elevation 10
METAR ENBS 240750Z 09020KT 2000 -SHSN VV010 M05/M06 Q1017
Observed Flight Rules
Jan-24 @ 07:50 UTC
(48 minutes ago)
LIFR
Wind Visibility
90° at 20 knots 1,996 meters
Clouds
  • Vertical visibility at 1,000' AGL
Conditions
  • Light Snow
Temperature Dewpoint
-5°C / 23°F -6°C / 21°F
Humidity Altimeter Pressure
93% 30.03" Hg 1016.92 hPa